createdAt,value
2018-08-09T00:02:00.408Z,18.95
2018-08-09T00:04:30.010Z,18.93
2018-08-09T00:06:59.670Z,18.96
2018-08-09T00:09:29.108Z,18.96
2018-08-09T00:11:58.586Z,18.98
2018-08-09T00:14:28.193Z,19.02
2018-08-09T00:16:57.779Z,18.97
2018-08-09T00:19:28.237Z,18.87
2018-08-09T00:21:57.733Z,18.61
2018-08-09T00:24:27.299Z,18.53
2018-08-09T00:26:56.808Z,18.47
2018-08-09T00:29:26.282Z,18.44
2018-08-09T00:31:55.778Z,18.42
2018-08-09T00:34:25.302Z,18.39
2018-08-09T00:36:54.770Z,18.33
2018-08-09T00:39:24.375Z,18.23
2018-08-09T00:41:53.961Z,18.04
2018-08-09T00:44:24.069Z,17.92
2018-08-09T00:46:53.601Z,18.04
2018-08-09T00:49:23.266Z,17.99
2018-08-09T00:51:52.811Z,18.00
2018-08-09T00:54:22.301Z,17.92
2018-08-09T00:56:51.833Z,17.88
2018-08-09T00:59:21.412Z,17.72
2018-08-09T01:01:50.946Z,17.67
2018-08-09T01:04:20.550Z,17.73
2018-08-09T01:06:50.134Z,17.82
2018-08-09T01:09:19.591Z,17.73
2018-08-09T01:11:49.146Z,17.78
2018-08-09T01:14:18.592Z,17.85
2018-08-09T01:16:48.118Z,17.68
2018-08-09T01:19:17.670Z,17.61
2018-08-09T01:21:47.253Z,17.59
2018-08-09T01:24:16.853Z,17.56
2018-08-09T01:26:46.357Z,17.50
2018-08-09T01:29:15.897Z,17.48
2018-08-09T01:31:45.516Z,17.50
2018-08-09T01:34:15.046Z,17.51
2018-08-09T01:36:45.429Z,17.55
2018-08-09T01:39:15.252Z,17.26
2018-08-09T01:42:01.666Z,17.14
2018-08-09T01:44:31.111Z,17.17
2018-08-09T01:47:00.543Z,17.26
2018-08-09T01:49:30.169Z,17.33
2018-08-09T01:51:59.664Z,17.33
2018-08-09T01:54:29.140Z,17.28
2018-08-09T01:56:58.612Z,17.24
2018-08-09T01:59:28.173Z,17.24
2018-08-09T02:01:57.659Z,17.26
2018-08-09T02:04:27.102Z,17.28
2018-08-09T02:06:56.746Z,17.35
2018-08-09T02:09:31.356Z,17.28
2018-08-09T02:12:01.226Z,17.23
2018-08-09T02:14:30.717Z,17.16
2018-08-09T02:17:00.614Z,17.09
2018-08-09T02:19:30.331Z,17.15
2018-08-09T02:21:59.915Z,17.20
2018-08-09T02:24:29.413Z,17.15
2018-08-09T02:26:58.921Z,17.15
2018-08-09T02:29:28.429Z,17.02
2018-08-09T02:31:57.927Z,16.90
2018-08-09T02:34:27.369Z,16.94
2018-08-09T02:36:56.853Z,17.01
2018-08-09T02:39:27.195Z,17.02
2018-08-09T02:41:56.790Z,16.98
2018-08-09T02:44:26.891Z,16.93
2018-08-09T02:46:56.443Z,16.96
2018-08-09T02:49:26.392Z,17.00
2018-08-09T02:51:56.163Z,17.03
2018-08-09T02:54:25.686Z,17.01
2018-08-09T02:56:55.368Z,17.04
2018-08-09T02:59:24.889Z,17.00
2018-08-09T03:01:54.542Z,16.98
2018-08-09T03:04:24.076Z,16.79
2018-08-09T03:06:53.710Z,16.82
2018-08-09T03:09:23.395Z,16.88
2018-08-09T03:11:53.006Z,16.84
2018-08-09T03:14:22.579Z,16.81
2018-08-09T03:16:52.960Z,16.84
2018-08-09T03:19:22.702Z,16.74
2018-08-09T03:21:52.397Z,16.62
2018-08-09T03:24:22.740Z,16.72
2018-08-09T03:29:41.192Z,16.56
2018-08-09T03:32:10.925Z,16.54
2018-08-09T03:34:40.535Z,16.56
2018-08-09T03:37:10.156Z,16.44
2018-08-09T03:39:40.529Z,16.34
2018-08-09T03:42:10.283Z,16.33
2018-08-09T03:44:39.849Z,16.22
2018-08-09T03:47:09.438Z,16.21
2018-08-09T03:49:39.031Z,16.22
2018-08-09T03:52:08.520Z,16.28
2018-08-09T03:54:38.164Z,16.27
2018-08-09T03:57:07.607Z,16.31
2018-08-09T03:59:37.282Z,16.24
2018-08-09T04:02:07.076Z,16.13
2018-08-09T04:04:36.664Z,16.13
2018-08-09T04:07:07.266Z,16.18
2018-08-09T04:09:37.522Z,16.17
2018-08-09T04:12:07.551Z,16.17
2018-08-09T04:15:16.967Z,16.18
2018-08-09T04:17:46.516Z,16.17
2018-08-09T04:20:16.051Z,16.23
2018-08-09T04:22:45.678Z,16.26
2018-08-09T04:25:15.376Z,16.30
2018-08-09T04:27:46.109Z,16.27
2018-08-09T04:30:15.609Z,16.37
2018-08-09T04:32:45.470Z,16.37
2018-08-09T04:35:15.616Z,16.43
2018-08-09T04:37:45.368Z,16.53
2018-08-09T04:40:15.095Z,16.56
2018-08-09T04:42:44.872Z,16.63
2018-08-09T04:45:14.444Z,16.74
2018-08-09T04:47:44.092Z,16.85
2018-08-09T04:50:13.596Z,16.89
2018-08-09T04:52:43.730Z,16.95
2018-08-09T04:55:13.395Z,16.96
2018-08-09T04:57:43.937Z,16.97
2018-08-09T05:00:13.525Z,16.88
2018-08-09T05:02:43.718Z,16.91
2018-08-09T05:05:13.362Z,16.97
2018-08-09T05:07:42.903Z,17.07
2018-08-09T05:10:14.609Z,17.15
2018-08-09T05:12:45.357Z,17.16
2018-08-09T05:15:16.710Z,17.31
2018-08-09T05:17:46.855Z,17.48
2018-08-09T05:20:16.369Z,17.58
2018-08-09T05:22:47.164Z,17.68
2018-08-09T05:25:16.847Z,17.69
2018-08-09T05:27:47.317Z,17.74
2018-08-09T05:30:16.979Z,17.84
2018-08-09T05:32:49.012Z,17.95
2018-08-09T05:35:19.534Z,17.99
2018-08-09T05:37:49.985Z,18.10
2018-08-09T05:40:19.788Z,18.19
2018-08-09T05:42:50.286Z,18.12
2018-08-09T05:45:20.018Z,18.31
2018-08-09T05:47:49.532Z,18.43
2018-08-09T05:50:19.749Z,18.49
2018-08-09T05:52:51.034Z,18.59
2018-08-09T05:55:21.121Z,18.69
2018-08-09T05:57:50.963Z,18.75
2018-08-09T06:00:21.538Z,18.85
2018-08-09T06:02:51.079Z,18.95
2018-08-09T06:05:20.799Z,19.01
2018-08-09T06:07:51.364Z,19.08
2018-08-09T06:10:21.031Z,19.19
2018-08-09T06:12:50.949Z,19.26
2018-08-09T06:15:21.905Z,19.36
2018-08-09T06:17:51.453Z,19.40
2018-08-09T06:20:21.268Z,19.50
2018-08-09T06:22:51.705Z,19.60
2018-08-09T06:25:21.428Z,19.73
2018-08-09T06:27:51.692Z,19.74
2018-08-09T06:30:21.772Z,19.86
2018-08-09T06:32:52.670Z,19.94
2018-08-09T06:35:22.379Z,20.07
2018-08-09T06:37:52.782Z,20.13
2018-08-09T06:40:23.325Z,20.17
2018-08-09T06:42:53.682Z,20.29
2018-08-09T06:45:24.198Z,20.40
2018-08-09T06:47:54.775Z,20.42
2018-08-09T06:50:24.311Z,20.55
2018-08-09T06:52:53.901Z,20.61
2018-08-09T06:55:23.484Z,20.76
2018-08-09T06:57:53.668Z,20.70
2018-08-09T07:00:23.360Z,20.78
2018-08-09T07:02:52.991Z,20.91
2018-08-09T07:05:22.591Z,21.01
2018-08-09T07:07:52.333Z,21.16
2018-08-09T07:10:22.181Z,21.12
2018-08-09T07:12:52.133Z,21.14
2018-08-09T07:15:21.635Z,21.38
2018-08-09T07:17:51.885Z,21.42
2018-08-09T07:20:22.642Z,21.45
2018-08-09T07:22:53.301Z,21.45
2018-08-09T07:25:23.534Z,21.49
2018-08-09T07:27:53.805Z,21.64
2018-08-09T07:30:23.530Z,21.63
2018-08-09T07:32:54.136Z,21.71
2018-08-09T07:35:23.780Z,21.72
2018-08-09T07:37:53.509Z,21.70
2018-08-09T07:40:23.696Z,21.86
2018-08-09T07:42:53.364Z,21.98
2018-08-09T07:45:23.552Z,22.19
2018-08-09T07:47:53.713Z,22.08
2018-08-09T07:50:23.305Z,22.19
2018-08-09T07:52:53.045Z,22.15
2018-08-09T07:55:22.678Z,22.16
2018-08-09T07:57:52.458Z,22.22
2018-08-09T08:00:22.118Z,22.29
2018-08-09T08:02:51.786Z,22.51
2018-08-09T08:05:21.432Z,22.54
2018-08-09T08:07:51.552Z,22.56
2018-08-09T08:10:21.169Z,22.66
2018-08-09T08:13:06.718Z,22.81
2018-08-09T08:15:36.824Z,22.79
2018-08-09T08:18:06.650Z,22.93
2018-08-09T08:20:37.040Z,23.10
2018-08-09T08:23:09.872Z,23.11
2018-08-09T08:25:40.128Z,23.17
2018-08-09T08:28:10.434Z,23.20
2018-08-09T08:30:39.989Z,23.32
2018-08-09T08:33:10.063Z,23.41
2018-08-09T08:35:39.585Z,23.52
2018-08-09T08:38:09.919Z,23.68
2018-08-09T08:40:39.502Z,23.60
2018-08-09T08:43:09.189Z,23.58
2018-08-09T08:45:40.764Z,23.73
2018-08-09T08:48:11.294Z,23.64
2018-08-09T08:50:40.980Z,23.75
2018-08-09T08:53:10.635Z,23.92
2018-08-09T08:55:40.312Z,24.03
2018-08-09T08:58:09.992Z,24.14
2018-08-09T09:00:40.651Z,24.17
2018-08-09T09:03:10.799Z,24.08
2018-08-09T09:05:40.387Z,24.16
2018-08-09T09:08:10.451Z,24.23
2018-08-09T09:10:40.042Z,24.43
2018-08-09T09:13:10.253Z,24.32
2018-08-09T09:15:40.060Z,24.38
2018-08-09T09:18:10.567Z,24.61
2018-08-09T09:20:40.286Z,24.82
2018-08-09T09:23:09.973Z,24.68
2018-08-09T09:25:40.517Z,24.73
2018-08-09T09:28:10.785Z,25.01
2018-08-09T09:30:41.748Z,25.21
2018-08-09T09:33:11.238Z,25.36
2018-08-09T09:35:41.344Z,25.79
2018-08-09T09:38:11.794Z,25.69
2018-08-09T09:40:41.346Z,25.85
2018-08-09T09:43:12.022Z,26.14
2018-08-09T09:45:41.744Z,26.22
2018-08-09T09:48:18.182Z,26.17
2018-08-09T09:50:49.923Z,26.22
2018-08-09T09:53:19.885Z,26.35
2018-08-09T09:55:49.594Z,26.40
2018-08-09T09:58:20.180Z,26.35
2018-08-09T10:00:54.802Z,26.99
2018-08-09T10:03:24.469Z,26.92
2018-08-09T10:05:53.990Z,26.88
2018-08-09T10:08:23.904Z,26.90
2018-08-09T10:10:54.470Z,26.83
2018-08-09T10:13:24.201Z,26.85
2018-08-09T10:15:53.663Z,26.85
2018-08-09T10:18:25.094Z,27.16
2018-08-09T10:20:54.817Z,26.98
2018-08-09T10:23:25.095Z,26.71
2018-08-09T10:25:54.769Z,26.79
2018-08-09T10:28:25.440Z,27.27
2018-08-09T10:30:55.840Z,26.96
2018-08-09T10:33:26.618Z,26.68
2018-08-09T10:35:57.409Z,26.88
2018-08-09T10:38:27.068Z,26.86
2018-08-09T10:40:57.660Z,27.04
2018-08-09T10:43:27.388Z,27.65
2018-08-09T10:45:57.121Z,27.82
2018-08-09T10:48:26.880Z,28.07
2018-08-09T10:50:57.050Z,28.27
2018-08-09T10:53:26.840Z,28.38
2018-08-09T10:55:56.461Z,28.42
2018-08-09T10:58:26.143Z,28.18
2018-08-09T11:00:55.757Z,27.87
2018-08-09T11:03:25.233Z,27.78
2018-08-09T11:05:54.856Z,27.91
2018-08-09T11:08:24.637Z,28.14
2018-08-09T11:10:54.549Z,28.38
2018-08-09T11:13:24.221Z,28.52
2018-08-09T11:15:53.873Z,28.71
2018-08-09T11:18:23.528Z,28.88
2018-08-09T11:20:54.254Z,28.72
2018-08-09T11:23:23.743Z,28.51
2018-08-09T11:25:53.430Z,28.47
2018-08-09T11:28:23.742Z,28.04
2018-08-09T11:30:53.655Z,27.49
2018-08-09T11:33:24.716Z,27.63
2018-08-09T11:35:56.445Z,27.37
2018-08-09T11:38:26.779Z,27.18
2018-08-09T11:40:56.311Z,26.98
2018-08-09T11:43:26.513Z,26.69
2018-08-09T11:45:56.173Z,26.66
2018-08-09T11:48:26.602Z,26.49
2018-08-09T11:50:56.910Z,26.54
2018-08-09T11:53:26.840Z,26.25
2018-08-09T11:55:56.477Z,26.15
2018-08-09T11:58:26.533Z,26.10
2018-08-09T12:00:56.190Z,26.27
2018-08-09T12:03:26.099Z,26.76
2018-08-09T12:05:55.616Z,26.99
2018-08-09T12:08:25.360Z,27.11
2018-08-09T12:10:54.952Z,26.86
2018-08-09T12:13:24.527Z,26.84
2018-08-09T12:15:55.248Z,26.87
2018-08-09T12:18:25.657Z,26.89
2018-08-09T12:20:55.204Z,26.91
2018-08-09T12:23:24.640Z,26.96
2018-08-09T12:25:54.231Z,26.80
2018-08-09T12:28:23.897Z,26.92
2018-08-09T12:30:53.497Z,26.92
2018-08-09T12:33:23.427Z,27.11
2018-08-09T12:35:53.452Z,27.13
2018-08-09T12:38:23.133Z,27.36
2018-08-09T12:40:52.716Z,27.81
2018-08-09T12:43:27.392Z,28.52
2018-08-09T12:45:57.817Z,30.62
2018-08-09T12:48:27.530Z,31.03
2018-08-09T12:50:57.060Z,31.12
2018-08-09T12:53:29.908Z,31.08
2018-08-09T12:55:59.732Z,31.51
2018-08-09T12:58:30.331Z,31.38
2018-08-09T13:01:00.122Z,31.62
2018-08-09T13:03:30.567Z,30.94
2018-08-09T13:06:00.882Z,30.20
2018-08-09T13:08:30.824Z,29.92
2018-08-09T13:11:01.450Z,29.74
2018-08-09T13:13:31.061Z,29.67
2018-08-09T13:16:00.641Z,29.46
2018-08-09T13:18:30.827Z,29.06
2018-08-09T13:21:01.396Z,29.53
2018-08-09T13:23:49.293Z,29.69
2018-08-09T13:26:18.833Z,29.85
2018-08-09T13:28:48.472Z,29.25
2018-08-09T13:31:18.224Z,29.29
2018-08-09T13:33:47.826Z,28.99
2018-08-09T13:36:18.326Z,28.94
2018-08-09T13:38:49.348Z,28.78
2018-08-09T13:41:18.985Z,28.70
2018-08-09T13:43:49.651Z,28.65
2018-08-09T13:46:19.767Z,28.63
2018-08-09T13:48:49.787Z,28.80
2018-08-09T13:51:19.712Z,28.65
2018-08-09T13:53:49.312Z,28.81
2018-08-09T13:56:18.967Z,28.61
2018-08-09T13:58:48.712Z,29.07
2018-08-09T14:01:19.124Z,29.02
2018-08-09T14:03:48.843Z,29.03
2018-08-09T14:06:18.436Z,29.18
2018-08-09T14:08:48.141Z,29.43
2018-08-09T14:11:32.044Z,29.67
2018-08-09T14:14:01.597Z,30.15
2018-08-09T14:16:32.375Z,31.29
2018-08-09T14:19:03.056Z,32.93
2018-08-09T14:21:33.468Z,33.80
2018-08-09T14:24:03.492Z,33.41
2018-08-09T14:26:33.298Z,32.71
2018-08-09T14:29:03.050Z,31.95
2018-08-09T14:31:33.243Z,31.52
2018-08-09T14:34:02.931Z,31.02
2018-08-09T14:36:33.249Z,30.83
2018-08-09T14:39:02.868Z,30.68
2018-08-09T14:41:32.563Z,31.60
2018-08-09T14:44:02.379Z,32.82
2018-08-09T14:46:32.123Z,33.89
2018-08-09T14:49:03.158Z,34.30
2018-08-09T14:51:35.077Z,33.86
2018-08-09T14:54:04.883Z,33.09
2018-08-09T14:56:36.240Z,33.78
2018-08-09T14:59:06.530Z,34.03
2018-08-09T15:01:36.132Z,34.37
2018-08-09T15:04:06.735Z,34.07
2018-08-09T15:06:36.924Z,32.97
2018-08-09T15:09:10.066Z,32.61
2018-08-09T15:11:39.997Z,32.62
2018-08-09T15:14:10.609Z,33.46
2018-08-09T15:16:41.215Z,34.56
2018-08-09T15:19:11.061Z,34.93
2018-08-09T15:24:26.327Z,35.34
2018-08-09T15:26:56.019Z,34.47
2018-08-09T15:29:25.707Z,34.35
2018-08-09T15:31:56.485Z,33.62
2018-08-09T15:34:26.304Z,33.77
2018-08-09T15:36:56.003Z,34.61
2018-08-09T15:39:25.967Z,34.49
2018-08-09T15:41:56.198Z,34.02
2018-08-09T15:44:25.755Z,34.11
2018-08-09T15:46:55.364Z,33.11
2018-08-09T15:49:25.118Z,33.30
2018-08-09T15:51:55.588Z,32.39
2018-08-09T15:54:25.322Z,31.51
2018-08-09T15:56:55.629Z,31.06
2018-08-09T15:59:25.225Z,30.45
2018-08-09T16:01:54.963Z,30.40
2018-08-09T16:04:25.416Z,30.16
2018-08-09T16:06:55.248Z,30.16
2018-08-09T16:10:02.024Z,29.85
2018-08-09T16:12:31.697Z,29.66
2018-08-09T16:15:01.289Z,29.55
2018-08-09T16:17:30.996Z,29.45
2018-08-09T16:20:00.761Z,29.18
2018-08-09T16:22:30.542Z,28.94
2018-08-09T16:25:00.004Z,28.85
2018-08-09T16:27:44.606Z,28.68
2018-08-09T16:30:21.759Z,28.65
2018-08-09T16:32:51.586Z,28.47
2018-08-09T16:35:21.301Z,28.37
2018-08-09T16:37:51.114Z,28.29
2018-08-09T16:40:24.768Z,28.22
2018-08-09T16:42:54.911Z,28.12
2018-08-09T16:45:25.396Z,27.88
2018-08-09T16:47:55.805Z,27.88
2018-08-09T16:50:26.277Z,27.75
2018-08-09T16:52:56.179Z,27.56
2018-08-09T16:55:27.214Z,27.51
2018-08-09T16:57:56.898Z,27.43
2018-08-09T17:00:26.686Z,27.35
2018-08-09T17:02:56.644Z,27.28
2018-08-09T17:05:28.143Z,27.03
2018-08-09T17:07:58.300Z,27.06
2018-08-09T17:10:28.567Z,27.08
2018-08-09T17:12:58.268Z,26.95
2018-08-09T17:15:29.220Z,26.74
2018-08-09T17:17:59.724Z,26.74
2018-08-09T17:20:58.106Z,26.77
2018-08-09T17:23:27.726Z,26.52
2018-08-09T17:25:57.423Z,26.52
2018-08-09T17:28:27.177Z,26.50
2018-08-09T17:30:56.865Z,26.31
2018-08-09T17:33:26.593Z,25.85
2018-08-09T17:38:26.083Z,22.38
2018-08-09T17:40:55.630Z,21.61
2018-08-09T17:43:25.168Z,21.51
2018-08-09T17:45:55.733Z,21.08
2018-08-09T17:48:25.357Z,20.93
2018-08-09T17:50:57.577Z,20.85
2018-08-09T17:53:28.712Z,20.79
2018-08-09T17:55:58.224Z,20.74
2018-08-09T17:58:28.303Z,20.69
2018-08-09T18:00:58.886Z,20.58
2018-08-09T18:03:29.414Z,20.56
2018-08-09T18:05:58.881Z,20.44
2018-08-09T18:08:28.495Z,20.48
2018-08-09T18:10:58.100Z,20.50
2018-08-09T18:13:27.729Z,20.43
2018-08-09T18:15:57.247Z,20.41
2018-08-09T18:18:26.882Z,20.45
2018-08-09T18:20:56.561Z,20.38
2018-08-09T18:23:26.233Z,20.40
2018-08-09T18:25:55.869Z,20.46
2018-08-09T18:28:25.686Z,20.47
2018-08-09T18:30:56.311Z,20.53
2018-08-09T18:33:25.852Z,20.49
2018-08-09T18:35:55.441Z,20.54
2018-08-09T18:38:25.058Z,20.56
2018-08-09T18:40:54.661Z,20.48
2018-08-09T18:43:24.158Z,20.50
2018-08-09T18:45:54.448Z,20.43
2018-08-09T18:48:24.002Z,20.38
2018-08-09T18:50:53.423Z,20.34
2018-08-09T18:53:23.063Z,20.50
2018-08-09T18:55:52.617Z,20.34
2018-08-09T18:58:22.504Z,20.25
2018-08-09T19:00:52.585Z,20.21
2018-08-09T19:03:22.269Z,20.23
2018-08-09T19:05:52.214Z,20.22
2018-08-09T19:08:21.867Z,20.25
2018-08-09T19:10:51.898Z,20.16
2018-08-09T19:13:22.789Z,20.12
2018-08-09T19:15:52.471Z,20.13
2018-08-09T19:18:22.187Z,20.08
2018-08-09T19:20:52.873Z,20.01
2018-08-09T19:23:23.353Z,20.05
2018-08-09T19:25:53.169Z,19.96
2018-08-09T19:28:23.753Z,19.89
2018-08-09T19:30:54.677Z,19.87
2018-08-09T19:33:24.331Z,19.85
2018-08-09T19:35:54.103Z,19.79
2018-08-09T19:38:23.797Z,19.81
2018-08-09T19:40:53.386Z,19.75
2018-08-09T19:43:23.613Z,19.68
2018-08-09T19:45:53.132Z,19.68
2018-08-09T19:48:22.847Z,19.62
2018-08-09T19:50:52.739Z,19.66
2018-08-09T19:53:22.580Z,19.62
2018-08-09T19:55:52.344Z,19.55
2018-08-09T19:58:22.009Z,19.59
2018-08-09T20:00:51.582Z,19.52
2018-08-09T20:03:21.561Z,19.51
2018-08-09T20:05:51.270Z,19.40
2018-08-09T20:08:20.704Z,19.50
2018-08-09T20:10:50.172Z,19.43
2018-08-09T20:13:19.851Z,19.51
2018-08-09T20:15:49.476Z,19.58
2018-08-09T20:18:19.036Z,19.44
2018-08-09T20:20:48.631Z,19.43
2018-08-09T20:23:18.225Z,19.38
2018-08-09T20:25:47.807Z,19.41
2018-08-09T20:28:17.293Z,19.33
2018-08-09T20:30:47.290Z,19.34
2018-08-09T20:33:16.913Z,19.31
2018-08-09T20:35:46.454Z,19.34
2018-08-09T20:38:16.120Z,19.29
2018-08-09T20:40:45.703Z,19.27
2018-08-09T20:43:15.355Z,19.24
2018-08-09T20:45:45.047Z,19.26
2018-08-09T20:48:14.688Z,19.29
2018-08-09T20:50:44.280Z,19.30
2018-08-09T20:53:14.001Z,19.33
2018-08-09T20:55:44.193Z,19.33
2018-08-09T20:58:13.835Z,19.34
2018-08-09T21:00:43.300Z,19.34
2018-08-09T21:03:12.795Z,19.34
2018-08-09T21:05:42.421Z,19.40
2018-08-09T21:08:12.644Z,19.38
2018-08-09T21:10:42.251Z,19.33
2018-08-09T21:13:11.878Z,19.31
2018-08-09T21:15:41.497Z,19.38
2018-08-09T21:18:11.452Z,19.39
2018-08-09T21:20:41.063Z,19.41
2018-08-09T21:23:10.588Z,19.50
2018-08-09T21:25:40.099Z,19.42
2018-08-09T21:28:09.815Z,19.45
2018-08-09T21:30:39.787Z,19.49
2018-08-09T21:33:09.629Z,19.51
2018-08-09T21:35:39.248Z,19.52
2018-08-09T21:38:08.832Z,19.51
2018-08-09T21:40:38.366Z,19.50
2018-08-09T21:43:07.962Z,19.60
2018-08-09T21:45:37.591Z,19.60
2018-08-09T21:48:07.329Z,19.59
2018-08-09T21:50:36.908Z,19.59
2018-08-09T21:53:06.886Z,19.62
2018-08-09T21:55:36.476Z,19.65
2018-08-09T21:58:06.247Z,19.62
2018-08-09T22:00:54.783Z,19.62
2018-08-09T22:03:28.858Z,19.62
2018-08-09T22:06:03.617Z,19.60
2018-08-09T22:08:38.295Z,19.64
2018-08-09T22:11:14.622Z,19.63
2018-08-09T22:13:49.787Z,19.58
2018-08-09T22:16:24.809Z,19.61
2018-08-09T22:18:59.493Z,19.60
2018-08-09T22:21:34.157Z,19.62
2018-08-09T22:24:03.659Z,19.60
2018-08-09T22:26:33.080Z,19.61
2018-08-09T22:29:02.704Z,19.63
2018-08-09T22:31:32.596Z,19.67
2018-08-09T22:34:02.201Z,19.67
2018-08-09T22:36:31.831Z,19.69
2018-08-09T22:39:01.494Z,19.68
2018-08-09T22:41:30.985Z,19.67
2018-08-09T22:44:01.919Z,19.68
2018-08-09T22:46:31.628Z,19.63
2018-08-09T22:49:01.652Z,19.64
2018-08-09T22:51:31.217Z,19.62
2018-08-09T22:54:00.790Z,19.68
2018-08-09T22:56:30.465Z,19.68
2018-08-09T22:59:00.169Z,19.68
2018-08-09T23:01:29.755Z,19.65
2018-08-09T23:03:59.264Z,19.64
2018-08-09T23:06:31.374Z,19.75
2018-08-09T23:09:00.975Z,19.76
2018-08-09T23:11:30.882Z,19.88
2018-08-09T23:14:01.250Z,19.88
2018-08-09T23:16:30.837Z,19.92
2018-08-09T23:19:00.512Z,19.90
2018-08-09T23:21:31.175Z,20.04
2018-08-09T23:24:00.752Z,19.99
2018-08-09T23:26:31.245Z,19.97
2018-08-09T23:29:01.311Z,19.83
2018-08-09T23:31:31.889Z,19.86
2018-08-09T23:34:01.414Z,19.92
2018-08-09T23:36:31.069Z,19.91
2018-08-09T23:39:01.004Z,19.96
2018-08-09T23:41:30.844Z,19.89
2018-08-09T23:44:01.189Z,19.79
2018-08-09T23:46:34.416Z,19.71
2018-08-09T23:49:04.830Z,19.75
2018-08-09T23:51:34.470Z,19.70
2018-08-09T23:54:05.180Z,19.69
2018-08-09T23:56:34.742Z,19.72
2018-08-09T23:59:04.351Z,19.72
